sensor_id;sensor_type;location;lat;lon;timestamp;temperature;humidity
40454;DHT22;26160;51.858;4.398;2023-06-26T00:00:55;22.20;71.30
40454;DHT22;26160;51.858;4.398;2023-06-26T00:03:22;22.10;73.60
40454;DHT22;26160;51.858;4.398;2023-06-26T00:05:49;22.00;79.70
40454;DHT22;26160;51.858;4.398;2023-06-26T00:08:17;21.90;82.20
40454;DHT22;26160;51.858;4.398;2023-06-26T00:10:43;21.90;85.40
40454;DHT22;26160;51.858;4.398;2023-06-26T00:13:09;21.90;87.10
40454;DHT22;26160;51.858;4.398;2023-06-26T00:15:38;21.70;90.40
40454;DHT22;26160;51.858;4.398;2023-06-26T00:18:05;21.70;91.80
40454;DHT22;26160;51.858;4.398;2023-06-26T00:20:31;21.60;92.80
40454;DHT22;26160;51.858;4.398;2023-06-26T00:23:00;21.50;94.30
40454;DHT22;26160;51.858;4.398;2023-06-26T00:25:26;21.40;94.90
40454;DHT22;26160;51.858;4.398;2023-06-26T00:27:52;21.40;96.80
40454;DHT22;26160;51.858;4.398;2023-06-26T00:30:18;21.40;96.70
40454;DHT22;26160;51.858;4.398;2023-06-26T00:32:44;21.40;96.50
40454;DHT22;26160;51.858;4.398;2023-06-26T00:35:10;21.30;97.30
40454;DHT22;26160;51.858;4.398;2023-06-26T00:37:37;21.20;97.50
40454;DHT22;26160;51.858;4.398;2023-06-26T00:40:03;21.20;99.80
40454;DHT22;26160;51.858;4.398;2023-06-26T00:42:31;21.10;99.90
40454;DHT22;26160;51.858;4.398;2023-06-26T00:44:57;21.10;99.90
40454;DHT22;26160;51.858;4.398;2023-06-26T00:47:24;21.10;99.90
40454;DHT22;26160;51.858;4.398;2023-06-26T00:49:51;21.00;99.90
40454;DHT22;26160;51.858;4.398;2023-06-26T00:52:17;21.00;99.90
40454;DHT22;26160;51.858;4.398;2023-06-26T00:54:44;21.00;99.90
40454;DHT22;26160;51.858;4.398;2023-06-26T00:57:10;21.00;99.90
40454;DHT22;26160;51.858;4.398;2023-06-26T00:59:40;21.00;99.90
40454;DHT22;26160;51.858;4.398;2023-06-26T01:02:07;20.90;99.90
40454;DHT22;26160;51.858;4.398;2023-06-26T01:04:35;20.80;99.90
40454;DHT22;26160;51.858;4.398;2023-06-26T01:07:02;20.80;99.90
40454;DHT22;26160;51.858;4.398;2023-06-26T01:09:30;20.70;99.90
40454;DHT22;26160;51.858;4.398;2023-06-26T01:11:57;20.70;99.90
40454;DHT22;26160;51.858;4.398;2023-06-26T01:14:23;20.70;99.90
40454;DHT22;26160;51.858;4.398;2023-06-26T01:16:49;20.80;99.90
40454;DHT22;26160;51.858;4.398;2023-06-26T01:19:24;20.70;99.90
40454;DHT22;26160;51.858;4.398;2023-06-26T01:27:34;20.90;99.90
40454;DHT22;26160;51.858;4.398;2023-06-26T01:30:03;20.90;99.90
40454;DHT22;26160;51.858;4.398;2023-06-26T01:32:33;20.90;99.90
40454;DHT22;26160;51.858;4.398;2023-06-26T01:35:00;20.80;99.90
40454;DHT22;26160;51.858;4.398;2023-06-26T01:37:27;20.80;99.90
40454;DHT22;26160;51.858;4.398;2023-06-26T01:39:54;20.80;99.90
40454;DHT22;26160;51.858;4.398;2023-06-26T01:42:20;20.80;99.90
40454;DHT22;26160;51.858;4.398;2023-06-26T01:44:46;20.80;99.90
40454;DHT22;26160;51.858;4.398;2023-06-26T01:47:16;20.80;99.90
40454;DHT22;26160;51.858;4.398;2023-06-26T01:49:56;20.80;99.90
40454;DHT22;26160;51.858;4.398;2023-06-26T01:52:33;20.80;99.90
40454;DHT22;26160;51.858;4.398;2023-06-26T01:55:18;20.80;99.90
40454;DHT22;26160;51.858;4.398;2023-06-26T01:57:47;20.80;99.90
40454;DHT22;26160;51.858;4.398;2023-06-26T02:00:17;20.80;99.90
40454;DHT22;26160;51.858;4.398;2023-06-26T02:02:45;20.80;99.90
40454;DHT22;26160;51.858;4.398;2023-06-26T02:05:12;20.80;99.90
40454;DHT22;26160;51.858;4.398;2023-06-26T02:07:38;20.80;99.90
40454;DHT22;26160;51.858;4.398;2023-06-26T02:10:05;20.80;99.90
40454;DHT22;26160;51.858;4.398;2023-06-26T02:12:31;20.80;99.90
40454;DHT22;26160;51.858;4.398;2023-06-26T02:14:57;20.80;99.90
40454;DHT22;26160;51.858;4.398;2023-06-26T02:17:23;20.80;99.90
40454;DHT22;26160;51.858;4.398;2023-06-26T02:19:50;20.80;99.90
40454;DHT22;26160;51.858;4.398;2023-06-26T02:22:16;20.80;99.90
40454;DHT22;26160;51.858;4.398;2023-06-26T02:24:43;20.80;99.90
40454;DHT22;26160;51.858;4.398;2023-06-26T02:27:10;20.80;99.90
40454;DHT22;26160;51.858;4.398;2023-06-26T02:29:36;20.80;99.90
40454;DHT22;26160;51.858;4.398;2023-06-26T02:32:03;20.80;98.80
40454;DHT22;26160;51.858;4.398;2023-06-26T02:34:29;20.80;98.10
40454;DHT22;26160;51.858;4.398;2023-06-26T02:36:56;20.80;95.10
40454;DHT22;26160;51.858;4.398;2023-06-26T02:39:22;20.80;98.60
40454;DHT22;26160;51.858;4.398;2023-06-26T02:41:48;20.70;97.80
40454;DHT22;26160;51.858;4.398;2023-06-26T02:44:14;20.70;97.00
40454;DHT22;26160;51.858;4.398;2023-06-26T02:46:41;20.60;97.60
40454;DHT22;26160;51.858;4.398;2023-06-26T02:49:09;20.50;97.50
40454;DHT22;26160;51.858;4.398;2023-06-26T02:51:35;20.50;98.90
40454;DHT22;26160;51.858;4.398;2023-06-26T02:54:01;20.40;99.90
40454;DHT22;26160;51.858;4.398;2023-06-26T02:56:27;20.30;99.90
40454;DHT22;26160;51.858;4.398;2023-06-26T02:58:57;20.30;99.90
40454;DHT22;26160;51.858;4.398;2023-06-26T03:01:24;20.20;99.90
40454;DHT22;26160;51.858;4.398;2023-06-26T03:03:50;20.20;99.90
40454;DHT22;26160;51.858;4.398;2023-06-26T03:06:17;20.20;99.90
40454;DHT22;26160;51.858;4.398;2023-06-26T03:08:43;20.10;99.90
40454;DHT22;26160;51.858;4.398;2023-06-26T03:11:09;20.10;99.90
40454;DHT22;26160;51.858;4.398;2023-06-26T03:13:36;20.00;99.90
40454;DHT22;26160;51.858;4.398;2023-06-26T03:16:04;20.00;99.90
40454;DHT22;26160;51.858;4.398;2023-06-26T03:18:30;19.90;99.90
40454;DHT22;26160;51.858;4.398;2023-06-26T03:20:57;19.90;99.90
40454;DHT22;26160;51.858;4.398;2023-06-26T03:23:23;19.80;99.90
40454;DHT22;26160;51.858;4.398;2023-06-26T03:25:50;19.80;99.90
40454;DHT22;26160;51.858;4.398;2023-06-26T03:28:17;19.80;99.90
40454;DHT22;26160;51.858;4.398;2023-06-26T03:30:43;19.80;99.90
40454;DHT22;26160;51.858;4.398;2023-06-26T03:33:09;19.70;99.90
40454;DHT22;26160;51.858;4.398;2023-06-26T03:35:36;19.70;99.90
40454;DHT22;26160;51.858;4.398;2023-06-26T03:38:04;19.70;99.90
40454;DHT22;26160;51.858;4.398;2023-06-26T03:40:30;19.70;99.90
40454;DHT22;26160;51.858;4.398;2023-06-26T03:42:56;19.70;99.90
40454;DHT22;26160;51.858;4.398;2023-06-26T03:45:22;19.60;99.90
40454;DHT22;26160;51.858;4.398;2023-06-26T03:47:50;19.60;99.90
40454;DHT22;26160;51.858;4.398;2023-06-26T03:50:16;19.60;99.90
40454;DHT22;26160;51.858;4.398;2023-06-26T03:52:42;19.50;99.90
40454;DHT22;26160;51.858;4.398;2023-06-26T03:55:09;19.50;99.90
40454;DHT22;26160;51.858;4.398;2023-06-26T03:57:35;19.40;99.90
40454;DHT22;26160;51.858;4.398;2023-06-26T04:00:01;19.40;99.90
40454;DHT22;26160;51.858;4.398;2023-06-26T04:02:30;19.40;99.90
40454;DHT22;26160;51.858;4.398;2023-06-26T04:04:57;19.40;99.90
40454;DHT22;26160;51.858;4.398;2023-06-26T04:07:23;19.40;99.90
40454;DHT22;26160;51.858;4.398;2023-06-26T04:09:49;19.40;99.90
40454;DHT22;26160;51.858;4.398;2023-06-26T04:12:15;19.40;99.90
40454;DHT22;26160;51.858;4.398;2023-06-26T04:14:41;19.40;99.90
40454;DHT22;26160;51.858;4.398;2023-06-26T04:17:07;19.40;99.90
40454;DHT22;26160;51.858;4.398;2023-06-26T04:19:33;19.40;99.90
40454;DHT22;26160;51.858;4.398;2023-06-26T04:22:01;19.40;99.90
40454;DHT22;26160;51.858;4.398;2023-06-26T04:24:28;19.40;99.90
40454;DHT22;26160;51.858;4.398;2023-06-26T04:26:54;19.40;99.90
40454;DHT22;26160;51.858;4.398;2023-06-26T04:29:23;19.50;99.90
40454;DHT22;26160;51.858;4.398;2023-06-26T04:31:56;19.50;99.90
40454;DHT22;26160;51.858;4.398;2023-06-26T04:34:27;19.50;99.90
40454;DHT22;26160;51.858;4.398;2023-06-26T04:36:54;19.60;99.90
40454;DHT22;26160;51.858;4.398;2023-06-26T04:39:20;19.70;99.90
40454;DHT22;26160;51.858;4.398;2023-06-26T04:41:46;19.70;99.90
40454;DHT22;26160;51.858;4.398;2023-06-26T04:44:12;19.80;99.90
40454;DHT22;26160;51.858;4.398;2023-06-26T04:46:38;19.80;99.90
40454;DHT22;26160;51.858;4.398;2023-06-26T04:49:08;19.90;99.90
40454;DHT22;26160;51.858;4.398;2023-06-26T04:51:34;20.00;99.90
40454;DHT22;26160;51.858;4.398;2023-06-26T04:54:07;20.00;99.90
40454;DHT22;26160;51.858;4.398;2023-06-26T04:56:34;20.00;99.90
40454;DHT22;26160;51.858;4.398;2023-06-26T05:40:30;20.70;1.00
40454;DHT22;26160;51.858;4.398;2023-06-26T05:49:01;20.50;1.00
40454;DHT22;26160;51.858;4.398;2023-06-26T05:51:28;20.50;1.00
40454;DHT22;26160;51.858;4.398;2023-06-26T05:54:03;20.20;1.00
40454;DHT22;26160;51.858;4.398;2023-06-26T05:56:32;19.90;19.30
40454;DHT22;26160;51.858;4.398;2023-06-26T05:59:10;20.00;1.00
40454;DHT22;26160;51.858;4.398;2023-06-26T06:01:37;20.20;1.00
40454;DHT22;26160;51.858;4.398;2023-06-26T06:04:03;20.20;1.00
40454;DHT22;26160;51.858;4.398;2023-06-26T06:06:29;20.00;1.00
40454;DHT22;26160;51.858;4.398;2023-06-26T06:08:55;20.10;1.00
40454;DHT22;26160;51.858;4.398;2023-06-26T06:11:22;20.30;1.00
40454;DHT22;26160;51.858;4.398;2023-06-26T06:13:49;20.10;1.20
40454;DHT22;26160;51.858;4.398;2023-06-26T06:16:15;20.00;1.00
40454;DHT22;26160;51.858;4.398;2023-06-26T06:21:47;19.80;1.00
40454;DHT22;26160;51.858;4.398;2023-06-26T06:26:44;20.30;1.00
40454;DHT22;26160;51.858;4.398;2023-06-26T06:29:38;20.40;1.00
40454;DHT22;26160;51.858;4.398;2023-06-26T06:45:59;20.80;1.00
40454;DHT22;26160;51.858;4.398;2023-06-26T06:48:39;21.10;1.00
40454;DHT22;26160;51.858;4.398;2023-06-26T06:59:19;21.60;1.00
40454;DHT22;26160;51.858;4.398;2023-06-26T07:01:47;21.70;1.00
40454;DHT22;26160;51.858;4.398;2023-06-26T07:04:26;21.30;1.00
40454;DHT22;26160;51.858;4.398;2023-06-26T07:07:18;21.30;1.00
40454;DHT22;26160;51.858;4.398;2023-06-26T07:09:50;21.50;1.00
40454;DHT22;26160;51.858;4.398;2023-06-26T07:12:28;21.90;1.00
40454;DHT22;26160;51.858;4.398;2023-06-26T07:14:59;22.20;1.00
40454;DHT22;26160;51.858;4.398;2023-06-26T07:17:40;22.30;1.00
40454;DHT22;26160;51.858;4.398;2023-06-26T07:20:38;22.20;1.00
40454;DHT22;26160;51.858;4.398;2023-06-26T07:23:25;22.20;1.00
40454;DHT22;26160;51.858;4.398;2023-06-26T07:25:58;22.20;1.00
40454;DHT22;26160;51.858;4.398;2023-06-26T07:28:37;22.40;1.00
40454;DHT22;26160;51.858;4.398;2023-06-26T07:31:15;22.40;1.00
40454;DHT22;26160;51.858;4.398;2023-06-26T07:40:03;23.10;1.00
40454;DHT22;26160;51.858;4.398;2023-06-26T07:43:13;22.90;1.00
40454;DHT22;26160;51.858;4.398;2023-06-26T07:45:41;22.90;1.00
40454;DHT22;26160;51.858;4.398;2023-06-26T07:48:44;22.70;1.00
40454;DHT22;26160;51.858;4.398;2023-06-26T07:51:21;22.90;1.00
40454;DHT22;26160;51.858;4.398;2023-06-26T07:54:27;22.90;1.00
40454;DHT22;26160;51.858;4.398;2023-06-26T07:57:32;22.70;1.00
40454;DHT22;26160;51.858;4.398;2023-06-26T08:00:22;22.50;1.00
40454;DHT22;26160;51.858;4.398;2023-06-26T08:03:27;22.50;1.00
40454;DHT22;26160;51.858;4.398;2023-06-26T08:06:43;22.40;1.00
40454;DHT22;26160;51.858;4.398;2023-06-26T08:09:20;22.70;1.00
40454;DHT22;26160;51.858;4.398;2023-06-26T08:12:05;23.00;1.00
40454;DHT22;26160;51.858;4.398;2023-06-26T08:14:50;23.00;99.90
40454;DHT22;26160;51.858;4.398;2023-06-26T08:17:27;22.80;1.00
40454;DHT22;26160;51.858;4.398;2023-06-26T08:20:09;23.00;1.00
40454;DHT22;26160;51.858;4.398;2023-06-26T08:23:31;23.30;24.60
40454;DHT22;26160;51.858;4.398;2023-06-26T08:26:26;23.50;99.90
40454;DHT22;26160;51.858;4.398;2023-06-26T08:29:01;23.80;1.00
40454;DHT22;26160;51.858;4.398;2023-06-26T08:31:43;23.50;29.20
40454;DHT22;26160;51.858;4.398;2023-06-26T08:34:18;23.60;99.90
40454;DHT22;26160;51.858;4.398;2023-06-26T08:37:21;23.50;1.00
40454;DHT22;26160;51.858;4.398;2023-06-26T08:43:28;23.50;1.00
40454;DHT22;26160;51.858;4.398;2023-06-26T08:48:32;23.20;1.00
40454;DHT22;26160;51.858;4.398;2023-06-26T08:51:16;23.10;1.00
40454;DHT22;26160;51.858;4.398;2023-06-26T08:54:27;23.40;99.90
40454;DHT22;26160;51.858;4.398;2023-06-26T08:56:55;23.60;1.00
40454;DHT22;26160;51.858;4.398;2023-06-26T08:59:23;23.50;1.00
40454;DHT22;26160;51.858;4.398;2023-06-26T09:01:50;23.60;99.90
40454;DHT22;26160;51.858;4.398;2023-06-26T09:06:57;23.40;99.90
40454;DHT22;26160;51.858;4.398;2023-06-26T09:09:48;23.60;1.00
40454;DHT22;26160;51.858;4.398;2023-06-26T09:12:15;23.60;1.00
40454;DHT22;26160;51.858;4.398;2023-06-26T09:17:20;23.40;99.90
40454;DHT22;26160;51.858;4.398;2023-06-26T09:19:58;23.40;99.90
40454;DHT22;26160;51.858;4.398;2023-06-26T09:22:26;23.50;1.00
40454;DHT22;26160;51.858;4.398;2023-06-26T09:24:52;23.90;1.00
40454;DHT22;26160;51.858;4.398;2023-06-26T09:27:19;24.10;99.90
40454;DHT22;26160;51.858;4.398;2023-06-26T09:29:46;24.00;99.90
40454;DHT22;26160;51.858;4.398;2023-06-26T09:32:13;23.90;99.90
40454;DHT22;26160;51.858;4.398;2023-06-26T09:34:42;23.40;1.00
40454;DHT22;26160;51.858;4.398;2023-06-26T09:37:12;23.30;1.00
40454;DHT22;26160;51.858;4.398;2023-06-26T09:39:38;23.40;1.00
40454;DHT22;26160;51.858;4.398;2023-06-26T09:42:04;23.00;1.00
40454;DHT22;26160;51.858;4.398;2023-06-26T09:44:33;23.10;99.90
40454;DHT22;26160;51.858;4.398;2023-06-26T09:47:01;23.10;1.00
40454;DHT22;26160;51.858;4.398;2023-06-26T09:49:41;23.10;1.00
40454;DHT22;26160;51.858;4.398;2023-06-26T09:52:09;22.80;99.90
40454;DHT22;26160;51.858;4.398;2023-06-26T09:54:35;22.50;1.00
40454;DHT22;26160;51.858;4.398;2023-06-26T09:57:16;22.90;1.00
40454;DHT22;26160;51.858;4.398;2023-06-26T09:59:43;23.10;1.00
40454;DHT22;26160;51.858;4.398;2023-06-26T10:02:11;23.20;1.00
40454;DHT22;26160;51.858;4.398;2023-06-26T10:04:38;23.40;44.00
40454;DHT22;26160;51.858;4.398;2023-06-26T10:07:11;23.30;1.00
40454;DHT22;26160;51.858;4.398;2023-06-26T10:09:44;23.20;99.90
40454;DHT22;26160;51.858;4.398;2023-06-26T10:12:19;23.20;1.00
40454;DHT22;26160;51.858;4.398;2023-06-26T10:14:46;23.00;99.90
40454;DHT22;26160;51.858;4.398;2023-06-26T10:17:16;23.30;1.00
40454;DHT22;26160;51.858;4.398;2023-06-26T10:19:44;23.40;1.00
40454;DHT22;26160;51.858;4.398;2023-06-26T10:22:20;23.60;1.00
40454;DHT22;26160;51.858;4.398;2023-06-26T10:24:48;23.90;1.00
40454;DHT22;26160;51.858;4.398;2023-06-26T10:27:19;24.00;1.00
40454;DHT22;26160;51.858;4.398;2023-06-26T10:29:49;23.90;55.00
40454;DHT22;26160;51.858;4.398;2023-06-26T10:32:17;24.20;1.00
40454;DHT22;26160;51.858;4.398;2023-06-26T10:34:44;24.50;1.00
40454;DHT22;26160;51.858;4.398;2023-06-26T10:37:12;24.60;1.00
40454;DHT22;26160;51.858;4.398;2023-06-26T10:39:49;24.70;99.90
40454;DHT22;26160;51.858;4.398;2023-06-26T10:42:17;25.10;99.90
40454;DHT22;26160;51.858;4.398;2023-06-26T10:44:45;25.10;1.00
40454;DHT22;26160;51.858;4.398;2023-06-26T10:47:31;25.10;1.00
40454;DHT22;26160;51.858;4.398;2023-06-26T10:50:23;24.90;99.90
40454;DHT22;26160;51.858;4.398;2023-06-26T10:53:15;24.60;1.00
40454;DHT22;26160;51.858;4.398;2023-06-26T10:55:59;24.10;1.00
40454;DHT22;26160;51.858;4.398;2023-06-26T10:58:41;23.80;99.90
40454;DHT22;26160;51.858;4.398;2023-06-26T11:01:17;24.30;99.90
40454;DHT22;26160;51.858;4.398;2023-06-26T11:06:29;24.10;1.00
40454;DHT22;26160;51.858;4.398;2023-06-26T11:14:20;23.60;91.00
40454;DHT22;26160;51.858;4.398;2023-06-26T11:16:47;23.90;99.90
40454;DHT22;26160;51.858;4.398;2023-06-26T11:19:16;24.10;1.00
40454;DHT22;26160;51.858;4.398;2023-06-26T11:21:42;24.00;22.40
40454;DHT22;26160;51.858;4.398;2023-06-26T11:24:10;24.10;1.00
40454;DHT22;26160;51.858;4.398;2023-06-26T11:26:41;23.90;1.00
40454;DHT22;26160;51.858;4.398;2023-06-26T11:29:08;24.00;1.00
40454;DHT22;26160;51.858;4.398;2023-06-26T11:31:36;24.00;99.90
40454;DHT22;26160;51.858;4.398;2023-06-26T11:34:11;24.20;1.00
40454;DHT22;26160;51.858;4.398;2023-06-26T11:36:43;24.50;99.90
40454;DHT22;26160;51.858;4.398;2023-06-26T11:39:12;25.00;1.00
40454;DHT22;26160;51.858;4.398;2023-06-26T11:41:40;24.80;99.90
40454;DHT22;26160;51.858;4.398;2023-06-26T11:44:10;24.70;1.00
40454;DHT22;26160;51.858;4.398;2023-06-26T11:46:37;24.40;28.40
40454;DHT22;26160;51.858;4.398;2023-06-26T11:49:08;24.00;99.90
40454;DHT22;26160;51.858;4.398;2023-06-26T11:51:35;23.90;1.00
40454;DHT22;26160;51.858;4.398;2023-06-26T11:54:04;24.00;1.00
40454;DHT22;26160;51.858;4.398;2023-06-26T11:56:30;24.10;1.00
40454;DHT22;26160;51.858;4.398;2023-06-26T12:01:42;24.50;1.00
40454;DHT22;26160;51.858;4.398;2023-06-26T12:04:09;24.50;99.90
40454;DHT22;26160;51.858;4.398;2023-06-26T12:06:37;24.30;1.00
40454;DHT22;26160;51.858;4.398;2023-06-26T12:09:10;24.40;1.00
40454;DHT22;26160;51.858;4.398;2023-06-26T12:11:41;24.30;1.00
40454;DHT22;26160;51.858;4.398;2023-06-26T12:14:08;24.50;99.90
40454;DHT22;26160;51.858;4.398;2023-06-26T12:16:36;24.80;1.00
40454;DHT22;26160;51.858;4.398;2023-06-26T12:19:04;24.90;99.90
40454;DHT22;26160;51.858;4.398;2023-06-26T12:24:02;24.70;1.00
40454;DHT22;26160;51.858;4.398;2023-06-26T12:26:29;25.20;29.60
40454;DHT22;26160;51.858;4.398;2023-06-26T12:31:28;24.50;1.00
40454;DHT22;26160;51.858;4.398;2023-06-26T12:33:54;24.50;1.00
40454;DHT22;26160;51.858;4.398;2023-06-26T12:36:21;24.70;1.00
40454;DHT22;26160;51.858;4.398;2023-06-26T12:38:48;24.50;1.00
40454;DHT22;26160;51.858;4.398;2023-06-26T12:41:17;24.30;99.90
40454;DHT22;26160;51.858;4.398;2023-06-26T12:43:43;24.40;99.90
40454;DHT22;26160;51.858;4.398;2023-06-26T12:46:11;24.30;1.00
40454;DHT22;26160;51.858;4.398;2023-06-26T12:48:44;24.10;99.90
40454;DHT22;26160;51.858;4.398;2023-06-26T12:51:25;23.90;1.00
40454;DHT22;26160;51.858;4.398;2023-06-26T12:53:54;24.00;99.90
40454;DHT22;26160;51.858;4.398;2023-06-26T12:56:20;24.20;99.90
40454;DHT22;26160;51.858;4.398;2023-06-26T13:03:59;25.20;1.00
40454;DHT22;26160;51.858;4.398;2023-06-26T13:06:28;25.30;1.00
40454;DHT22;26160;51.858;4.398;2023-06-26T13:08:54;25.40;1.00
40454;DHT22;26160;51.858;4.398;2023-06-26T13:11:20;25.20;99.90
40454;DHT22;26160;51.858;4.398;2023-06-26T13:13:47;25.00;1.00
40454;DHT22;26160;51.858;4.398;2023-06-26T13:16:13;24.90;1.00
40454;DHT22;26160;51.858;4.398;2023-06-26T13:18:40;24.50;1.00
40454;DHT22;26160;51.858;4.398;2023-06-26T13:21:13;25.00;99.90
40454;DHT22;26160;51.858;4.398;2023-06-26T13:23:41;25.40;1.00
40454;DHT22;26160;51.858;4.398;2023-06-26T13:26:08;25.50;1.00
40454;DHT22;26160;51.858;4.398;2023-06-26T13:28:35;25.60;1.00
40454;DHT22;26160;51.858;4.398;2023-06-26T13:31:02;25.80;1.00
40454;DHT22;26160;51.858;4.398;2023-06-26T13:33:30;25.60;1.00
40454;DHT22;26160;51.858;4.398;2023-06-26T13:36:00;25.20;1.00
40454;DHT22;26160;51.858;4.398;2023-06-26T13:38:26;24.70;1.00
40454;DHT22;26160;51.858;4.398;2023-06-26T13:40:55;24.40;1.00
40454;DHT22;26160;51.858;4.398;2023-06-26T13:43:27;24.30;1.00
40454;DHT22;26160;51.858;4.398;2023-06-26T13:45:54;24.40;1.00
40454;DHT22;26160;51.858;4.398;2023-06-26T13:53:34;24.10;99.90
40454;DHT22;26160;51.858;4.398;2023-06-26T13:56:01;24.20;99.90
40454;DHT22;26160;51.858;4.398;2023-06-26T13:58:29;24.00;1.00
40454;DHT22;26160;51.858;4.398;2023-06-26T14:00:58;23.90;1.00
40454;DHT22;26160;51.858;4.398;2023-06-26T14:03:26;24.00;1.00
40454;DHT22;26160;51.858;4.398;2023-06-26T14:05:54;24.00;99.90
40454;DHT22;26160;51.858;4.398;2023-06-26T14:08:26;23.80;1.00
40454;DHT22;26160;51.858;4.398;2023-06-26T14:10:52;23.70;1.00
40454;DHT22;26160;51.858;4.398;2023-06-26T14:13:18;23.80;99.90
40454;DHT22;26160;51.858;4.398;2023-06-26T14:15:44;23.80;99.90
40454;DHT22;26160;51.858;4.398;2023-06-26T14:18:15;23.80;99.90
40454;DHT22;26160;51.858;4.398;2023-06-26T14:20:43;23.80;99.90
40454;DHT22;26160;51.858;4.398;2023-06-26T14:23:09;23.80;1.00
40454;DHT22;26160;51.858;4.398;2023-06-26T14:25:57;23.90;99.90
40454;DHT22;26160;51.858;4.398;2023-06-26T14:36:35;24.00;1.00
40454;DHT22;26160;51.858;4.398;2023-06-26T14:39:09;24.30;99.90
40454;DHT22;26160;51.858;4.398;2023-06-26T14:41:38;24.40;1.00
40454;DHT22;26160;51.858;4.398;2023-06-26T14:44:05;24.60;99.90
40454;DHT22;26160;51.858;4.398;2023-06-26T14:46:40;24.70;99.90
40454;DHT22;26160;51.858;4.398;2023-06-26T14:49:13;24.70;99.90
40454;DHT22;26160;51.858;4.398;2023-06-26T14:51:41;24.40;99.90
40454;DHT22;26160;51.858;4.398;2023-06-26T14:54:08;24.40;1.00
40454;DHT22;26160;51.858;4.398;2023-06-26T14:56:34;24.40;99.90
40454;DHT22;26160;51.858;4.398;2023-06-26T14:59:00;24.40;99.90
40454;DHT22;26160;51.858;4.398;2023-06-26T15:01:29;24.40;99.90
40454;DHT22;26160;51.858;4.398;2023-06-26T15:03:59;24.70;1.00
40454;DHT22;26160;51.858;4.398;2023-06-26T15:06:38;24.70;99.90
40454;DHT22;26160;51.858;4.398;2023-06-26T15:09:06;24.70;99.90
40454;DHT22;26160;51.858;4.398;2023-06-26T15:11:32;24.60;16.30
40454;DHT22;26160;51.858;4.398;2023-06-26T15:13:58;24.40;1.00
40454;DHT22;26160;51.858;4.398;2023-06-26T15:16:26;24.20;99.90
40454;DHT22;26160;51.858;4.398;2023-06-26T15:18:56;24.10;99.90
40454;DHT22;26160;51.858;4.398;2023-06-26T15:26:36;24.10;1.00
40454;DHT22;26160;51.858;4.398;2023-06-26T15:29:02;24.10;99.90
40454;DHT22;26160;51.858;4.398;2023-06-26T15:34:18;24.20;99.90
40454;DHT22;26160;51.858;4.398;2023-06-26T15:36:44;24.20;1.00
40454;DHT22;26160;51.858;4.398;2023-06-26T15:39:10;24.20;6.60
40454;DHT22;26160;51.858;4.398;2023-06-26T15:41:38;24.30;99.90
40454;DHT22;26160;51.858;4.398;2023-06-26T15:46:40;24.40;99.90
40454;DHT22;26160;51.858;4.398;2023-06-26T15:51:42;24.10;99.90
40454;DHT22;26160;51.858;4.398;2023-06-26T15:54:11;24.20;99.90
40454;DHT22;26160;51.858;4.398;2023-06-26T15:56:37;23.90;99.90
40454;DHT22;26160;51.858;4.398;2023-06-26T15:59:03;24.00;99.90
40454;DHT22;26160;51.858;4.398;2023-06-26T16:01:29;24.00;1.00
40454;DHT22;26160;51.858;4.398;2023-06-26T16:03:55;24.00;1.00
40454;DHT22;26160;51.858;4.398;2023-06-26T16:06:22;24.00;99.90
40454;DHT22;26160;51.858;4.398;2023-06-26T16:08:48;24.10;99.90
40454;DHT22;26160;51.858;4.398;2023-06-26T16:11:15;24.20;99.90
40454;DHT22;26160;51.858;4.398;2023-06-26T16:52:44;22.70;1.00
40454;DHT22;26160;51.858;4.398;2023-06-26T16:55:10;22.40;99.90
40454;DHT22;26160;51.858;4.398;2023-06-26T16:57:36;22.40;1.00
40454;DHT22;26160;51.858;4.398;2023-06-26T17:00:04;22.40;99.90
40454;DHT22;26160;51.858;4.398;2023-06-26T17:02:31;22.30;1.00
40454;DHT22;26160;51.858;4.398;2023-06-26T17:04:58;22.20;99.90
40454;DHT22;26160;51.858;4.398;2023-06-26T17:07:24;22.20;99.90
40454;DHT22;26160;51.858;4.398;2023-06-26T17:09:51;22.40;1.00
40454;DHT22;26160;51.858;4.398;2023-06-26T17:12:17;22.50;1.00
40454;DHT22;26160;51.858;4.398;2023-06-26T17:14:43;22.50;1.00
40454;DHT22;26160;51.858;4.398;2023-06-26T17:17:10;22.70;1.00
40454;DHT22;26160;51.858;4.398;2023-06-26T17:19:36;22.80;99.90
40454;DHT22;26160;51.858;4.398;2023-06-26T17:22:03;22.50;99.90
40454;DHT22;26160;51.858;4.398;2023-06-26T17:24:29;22.30;1.00
40454;DHT22;26160;51.858;4.398;2023-06-26T17:27:10;22.20;99.90
40454;DHT22;26160;51.858;4.398;2023-06-26T17:29:38;22.50;1.00
40454;DHT22;26160;51.858;4.398;2023-06-26T17:32:05;22.20;1.00
40454;DHT22;26160;51.858;4.398;2023-06-26T17:34:31;22.10;99.90
40454;DHT22;26160;51.858;4.398;2023-06-26T17:36:58;21.90;99.90
40454;DHT22;26160;51.858;4.398;2023-06-26T17:39:24;21.90;99.90
40454;DHT22;26160;51.858;4.398;2023-06-26T17:41:53;21.80;99.90
40454;DHT22;26160;51.858;4.398;2023-06-26T17:44:19;21.80;1.00
40454;DHT22;26160;51.858;4.398;2023-06-26T17:46:48;21.90;1.00
40454;DHT22;26160;51.858;4.398;2023-06-26T17:49:14;22.20;1.00
40454;DHT22;26160;51.858;4.398;2023-06-26T17:51:41;22.30;74.50
40454;DHT22;26160;51.858;4.398;2023-06-26T17:54:07;22.50;1.00
40454;DHT22;26160;51.858;4.398;2023-06-26T17:56:33;22.60;1.00
40454;DHT22;26160;51.858;4.398;2023-06-26T17:59:00;22.70;99.90
40454;DHT22;26160;51.858;4.398;2023-06-26T18:01:30;22.80;1.00
40454;DHT22;26160;51.858;4.398;2023-06-26T18:04:02;22.60;99.90
40454;DHT22;26160;51.858;4.398;2023-06-26T18:06:29;22.20;1.00
40454;DHT22;26160;51.858;4.398;2023-06-26T18:08:56;22.20;1.00
40454;DHT22;26160;51.858;4.398;2023-06-26T18:11:22;22.20;99.90
40454;DHT22;26160;51.858;4.398;2023-06-26T18:13:48;22.10;1.00
40454;DHT22;26160;51.858;4.398;2023-06-26T18:16:14;22.00;55.90
40454;DHT22;26160;51.858;4.398;2023-06-26T18:18:41;22.00;1.00
40454;DHT22;26160;51.858;4.398;2023-06-26T18:21:07;21.90;1.00
40454;DHT22;26160;51.858;4.398;2023-06-26T18:23:33;21.80;1.00
40454;DHT22;26160;51.858;4.398;2023-06-26T18:26:00;21.80;1.00
40454;DHT22;26160;51.858;4.398;2023-06-26T18:28:27;21.70;99.90
40454;DHT22;26160;51.858;4.398;2023-06-26T18:30:55;21.60;1.00
40454;DHT22;26160;51.858;4.398;2023-06-26T18:33:22;21.50;99.90
40454;DHT22;26160;51.858;4.398;2023-06-26T18:35:48;21.40;1.00
40454;DHT22;26160;51.858;4.398;2023-06-26T18:38:14;21.50;99.90
40454;DHT22;26160;51.858;4.398;2023-06-26T18:40:41;21.50;1.00
40454;DHT22;26160;51.858;4.398;2023-06-26T18:43:07;21.40;93.80
40454;DHT22;26160;51.858;4.398;2023-06-26T18:45:33;21.30;1.00
40454;DHT22;26160;51.858;4.398;2023-06-26T18:47:59;21.30;99.90
40454;DHT22;26160;51.858;4.398;2023-06-26T18:50:26;21.10;1.00
40454;DHT22;26160;51.858;4.398;2023-06-26T18:52:54;21.00;1.00
40454;DHT22;26160;51.858;4.398;2023-06-26T18:55:20;21.00;99.90
40454;DHT22;26160;51.858;4.398;2023-06-26T18:57:49;20.90;99.90
40454;DHT22;26160;51.858;4.398;2023-06-26T19:00:16;21.00;1.00